Temporada 2024 · Etapa 13

Hungarian Grand Prix

2024-07-21 · Hungaroring · Hungary · Hungarian Grand Prix · 70Lap · 306.630km
McLaren 1:38:01.989
Vitória de equipa 43pt P1 · P2 1-2
McLaren +2.141
Mercedes +14.880
Volta mais rápida
1:20.305 · L55
Abandono
1
Pierre Gasly L33
Clima
29°/45°
média ar/pista · seco · humidade 47%
Safety car
0
Acionamentos de SC/VSC
Uso de pneus Direção de prova
Storylines · This Grand Prix & circuit
Mais vitórias neste GP
Lewis Hamilton ativo 8 vitórias
Michael Schumacher 4 vitórias
Conversão pole-vitória 17/41 41.5%
Most DNFs · all-time P30
Most SC/VSC · all-time P31
Chegada mais apertada · all-time P19
Most lead changes · all-time P4
Circuito Info
Hungaroring Budapest, Hungary
70Lap 306.630km 41 corridas held (1986–) Recorde de volta 1:16.207 · Michael Schumacher (2002)
Recordes Watch · Active drivers ranked at this Grand Prix
P1 Lewis Hamilton 8 vitórias · GP #1
P4 Lando Norris 2 vitórias · → Ayrton Senna -1
P4 Max Verstappen 2 vitórias · → Ayrton Senna -1
P1 Fernando Alonso 23 largadas · GP #1
P2 Lewis Hamilton 20 largadas · → Fernando Alonso -3
P8 Sergio Pérez 15 largadas · → Sebastian Vettel -1
Corrida Trace · position by lap
largada parada SG 1 6 11 16 21 26 31 36 41 46 51 56 61 66 Piastri · parada nos boxes L18 Piastri · parada nos boxes L47 Piastri PIA Piastri PIA Norris · parada nos boxes L17 Norris · parada nos boxes L45 Norris NOR Norris NOR Hamilton · parada nos boxes L16 Hamilton · parada nos boxes L40 Hamilton HAM Hamilton HAM Leclerc · parada nos boxes L23 Leclerc · parada nos boxes L40 Leclerc LEC Leclerc LEC Verstappen · parada nos boxes L21 Verstappen · parada nos boxes L49 Verstappen VER Verstappen VER Sainz · parada nos boxes L21 Sainz · parada nos boxes L47 Sainz SAI Sainz SAI Pérez · parada nos boxes L28 Pérez · parada nos boxes L47 Pérez PER Pérez PER Russell · parada nos boxes L33 Russell · parada nos boxes L53 Russell RUS Russell RUS Tsunoda · parada nos boxes L29 Tsunoda TSU Tsunoda TSU Stroll · parada nos boxes L14 Stroll · parada nos boxes L45 Stroll STR Stroll STR Alonso · parada nos boxes L7 Alonso · parada nos boxes L37 Alonso ALO Alonso ALO Ricciardo · parada nos boxes L7 Ricciardo · parada nos boxes L28 Ricciardo RIC Ricciardo RIC Hülkenberg · parada nos boxes L2 Hülkenberg · parada nos boxes L29 Hülkenberg HUL Hülkenberg HUL Albon · parada nos boxes L6 Albon · parada nos boxes L29 Albon ALB Albon ALB Magnussen · parada nos boxes L6 Magnussen · parada nos boxes L34 Magnussen MAG Magnussen MAG Bottas · parada nos boxes L16 Bottas · parada nos boxes L45 Bottas BOT Bottas BOT Sargeant · parada nos boxes L8 Sargeant · parada nos boxes L33 Sargeant · parada nos boxes L63 Sargeant SAR Sargeant SAR Ocon · parada nos boxes L6 Ocon · parada nos boxes L30 Ocon · parada nos boxes L64 Ocon OCO Ocon OCO Zhou · parada nos boxes L7 Zhou · parada nos boxes L36 Zhou ZHO Zhou ZHO Gasly · parada nos boxes L28 Gasly · abandono L33 Gasly GAS Gasly GAS
parada nos boxes punição cumprida nos boxes SG Grelha de partida carro parado posição em cada volta (desde 1996)
PosPilotoTeamGrelhaVoltaTempo / StatusPontos
1 81 Oscar Piastri McLaren 2 70 1:38:01.989 25
2 4 Lando Norris McLaren 1 70 +2.141 18
3 44 Lewis Hamilton Mercedes 5 70 +14.880 15
4 16 Charles Leclerc Ferrari 6 70 +19.686 12
5 1 Max Verstappen Red Bull 3 70 +21.349 10
6 55 Carlos Sainz Ferrari 4 70 +23.073 8
7 11 Sergio Pérez Red Bull 16 70 +39.792 6
8 63 George Russell FL Mercedes 17 70 +42.368 5
9 22 Yuki Tsunoda RB F1 Team 10 70 +1:17.259 2
10 18 Lance Stroll Aston Martin 8 70 +1:17.976 1
11 14 Fernando Alonso Aston Martin 7 70 +1:22.460
12 3 Daniel Ricciardo RB F1 Team 9 69 +17.924
13 27 Nico Hülkenberg Haas F1 Team 11 69 +33.184
14 23 Alexander Albon Williams 13 69 +36.769
15 20 Kevin Magnussen Haas F1 Team 15 69 +45.302
16 77 Valtteri Bottas Sauber 12 69 +45.409
17 2 Logan Sargeant Williams 14 69 +52.591
18 31 Esteban Ocon Alpine F1 Team 19 69 +1:00.929
19 24 Guanyu Zhou Sauber 18 69 +1:03.598
R 10 Pierre Gasly Alpine F1 Team 20 33 Retired
PosPilotoTeamQ1Q2Q3Diferença para a pole
1 4 Lando Norris McLaren 1:17.755 1:15.540 1:15.227 POLE Q3
2 81 Oscar Piastri McLaren 1:17.504 1:15.785 1:15.249 +0.022 Q3
3 1 Max Verstappen Red Bull 1:17.087 1:15.770 1:15.273 +0.046 Q3
4 55 Carlos Sainz Ferrari 1:17.244 1:15.885 1:15.696 +0.469 Q3
5 44 Lewis Hamilton Mercedes 1:17.087 1:16.307 1:15.854 +0.627 Q3
6 16 Charles Leclerc Ferrari 1:17.437 1:15.891 1:15.905 +0.664 Q2
7 14 Fernando Alonso Aston Martin 1:17.624 1:16.117 1:16.043 +0.816 Q3
8 18 Lance Stroll Aston Martin 1:17.405 1:16.075 1:16.244 +0.848 Q2
9 3 Daniel Ricciardo RB F1 Team 1:17.050 1:16.202 1:16.447 +0.975 Q2
10 22 Yuki Tsunoda RB F1 Team 1:17.436 1:16.121 1:16.477 +0.894 Q2
11 27 Nico Hülkenberg Haas F1 Team 1:17.362 1:16.317 +1.090 Q2
12 77 Valtteri Bottas Sauber 1:17.487 1:16.384 +1.157 Q2
13 23 Alexander Albon Williams 1:17.280 1:16.429 +1.202 Q2
14 2 Logan Sargeant Williams 1:17.770 1:16.543 +1.316 Q2
15 20 Kevin Magnussen Haas F1 Team 1:17.851 1:16.548 +1.321 Q2
16 11 Sergio Pérez Red Bull 1:17.886 +2.659 Q1
17 63 George Russell Mercedes 1:17.968 +2.741 Q1
18 24 Guanyu Zhou Sauber 1:18.037 +2.810 Q1
19 31 Esteban Ocon Alpine F1 Team 1:18.049 +2.822 Q1
20 10 Pierre Gasly Alpine F1 Team 1:18.166 +2.939 Q1
Grelha de partida
Oficial
Final grid as classificado, including any saída dos boxes largadas. Source: Jolpica-F1. The arrow compares the grid slot with the a qualificação classification; hover a drop to see the stewards document behind it.
Sem dados desta sessão.
PosPilotoMelhor voltaDiferençaVoltas
1 55 Carlos Sainz 1:18.713 27
2 1 Max Verstappen 1:18.989 +0.276 20
3 16 Charles Leclerc 1:19.011 +0.298 29
4 63 George Russell 1:19.137 +0.424 28
5 24 Guanyu Zhou 1:19.180 +0.467 24
6 4 Lando Norris 1:19.211 +0.498 26
7 81 Oscar Piastri 1:19.249 +0.536 26
8 22 Yuki Tsunoda 1:19.260 +0.547 26
9 18 Lance Stroll 1:19.265 +0.552 25
10 44 Lewis Hamilton 1:19.287 +0.574 29
11 11 Sergio Pérez 1:19.440 +0.727 22
12 3 Daniel Ricciardo 1:19.578 +0.865 27
13 14 Fernando Alonso 1:19.686 +0.973 24
14 23 Alexander Albon 1:19.794 +1.081 22
15 77 Valtteri Bottas 1:19.804 +1.091 28
16 2 Logan Sargeant 1:19.885 +1.172 26
17 10 Pierre Gasly 1:19.976 +1.263 26
18 31 Esteban Ocon 1:20.023 +1.310 26
19 20 Kevin Magnussen 1:20.295 +1.582 27
20 50 Oliver Bearman 1:20.371 +1.658 27
Classified by best lap · source OpenF1 (2023+)
PosPilotoMelhor voltaDiferençaVoltas
1 4 Lando Norris 1:17.788 24
2 1 Max Verstappen 1:18.031 +0.243 20
3 55 Carlos Sainz 1:18.185 +0.397 23
4 11 Sergio Pérez 1:18.255 +0.467 23
5 63 George Russell 1:18.294 +0.506 20
6 20 Kevin Magnussen 1:18.315 +0.527 24
7 44 Lewis Hamilton 1:18.363 +0.575 20
8 3 Daniel Ricciardo 1:18.371 +0.583 20
9 23 Alexander Albon 1:18.514 +0.726 22
10 14 Fernando Alonso 1:18.519 +0.731 23
11 77 Valtteri Bottas 1:18.586 +0.798 25
12 2 Logan Sargeant 1:18.611 +0.823 21
13 81 Oscar Piastri 1:18.618 +0.830 21
14 31 Esteban Ocon 1:18.754 +0.966 25
15 27 Nico Hülkenberg 1:18.791 +1.003 25
16 10 Pierre Gasly 1:18.888 +1.100 24
17 18 Lance Stroll 1:19.179 +1.391 25
18 16 Charles Leclerc 1:19.286 +1.498 8
19 22 Yuki Tsunoda 1:19.606 +1.818 13
20 24 Guanyu Zhou 1:20.067 +2.279 25
Classified by best lap · source OpenF1 (2023+)
PosPilotoMelhor voltaDiferençaVoltas
1 4 Lando Norris 1:16.098 17
2 81 Oscar Piastri 1:16.142 +0.044 17
3 1 Max Verstappen 1:16.379 +0.281 27
4 63 George Russell 1:16.564 +0.466 15
5 55 Carlos Sainz 1:16.639 +0.541 16
6 3 Daniel Ricciardo 1:16.652 +0.554 15
7 23 Alexander Albon 1:16.661 +0.563 16
8 27 Nico Hülkenberg 1:16.696 +0.598 15
9 22 Yuki Tsunoda 1:16.744 +0.646 16
10 44 Lewis Hamilton 1:16.786 +0.688 14
11 16 Charles Leclerc 1:16.803 +0.705 17
12 77 Valtteri Bottas 1:16.804 +0.706 20
13 11 Sergio Pérez 1:16.954 +0.856 25
14 14 Fernando Alonso 1:17.001 +0.903 21
15 18 Lance Stroll 1:17.085 +0.987 22
16 2 Logan Sargeant 1:17.168 +1.070 15
17 24 Guanyu Zhou 1:17.291 +1.193 15
18 10 Pierre Gasly 1:17.499 +1.401 15
19 20 Kevin Magnussen 1:17.507 +1.409 17
20 31 Esteban Ocon 1:17.575 +1.477 16
Classified by best lap · source OpenF1 (2023+)
#PilotoTempo de voltaVolta
1 63 George Russell 1:20.305 L55
2 2 Logan Sargeant 1:20.561 L65
3 1 Max Verstappen 1:20.908 L51
4 63 George Russell 1:21.020 L56
5 11 Sergio Pérez 1:21.096 L49
6 1 Max Verstappen 1:21.171 L52
7 11 Sergio Pérez 1:21.299 L50
8 63 George Russell 1:21.304 L57
9 55 Carlos Sainz 1:21.441 L53
10 55 Carlos Sainz 1:21.491 L54
Top 10 mais rápida race voltas — #1 is the mais rápida lap of a corrida(FL).
Pit stops · como se comparam
21s 22s 23s mediana 21.8s Sergio Pérez · L47 · 21.056s Daniel Ricciardo · L7 · 21.084s Lando Norris · L45 · 21.249s Lewis Hamilton · L16 · 21.306s George Russell · L53 · 21.328s Esteban Ocon · L64 · 21.330s Max Verstappen · L49 · 21.344s George Russell · L33 · 21.369s Daniel Ricciardo · L28 · 21.378s Sergio Pérez · L28 · 21.395s Logan Sargeant · L33 · 21.398s Pierre Gasly · L28 · 21.405s Carlos Sainz · L47 · 21.439s Esteban Ocon · L30 · 21.444s Yuki Tsunoda · L29 · 21.467s Oscar Piastri · L18 · 21.641s Carlos Sainz · L21 · 21.655s Charles Leclerc · L40 · 21.723s Logan Sargeant · L8 · 21.757s Fernando Alonso · L37 · 21.800s Oscar Piastri · L47 · 21.823s Esteban Ocon · L6 · 21.829s Lando Norris · L17 · 21.861s Kevin Magnussen · L6 · 21.871s Charles Leclerc · L23 · 21.894s Logan Sargeant · L63 · 21.908s Lewis Hamilton · L40 · 21.910s Valtteri Bottas · L45 · 21.981s Guanyu Zhou · L7 · 21.993s Alexander Albon · L6 · 22.091s Max Verstappen · L21 · 22.101s Valtteri Bottas · L16 · 22.146s Guanyu Zhou · L36 · 22.183s Lance Stroll · L45 · 22.276s Nico Hülkenberg · L2 · 22.287s Nico Hülkenberg · L29 · 22.472s Kevin Magnussen · L34 · 22.531s Fernando Alonso · L7 · 22.542s Lance Stroll · L14 · 23.237s Alexander Albon · L29 · 23.410s
mais rápida 21.056s Sergio Pérez mais lenta 23.410s Alexander Albon tempo de passagem pelos boxes — um ponto por paragem
PilotoParagemVoltaTempoPassagem pela saída dos boxes
27 Nico Hülkenberg 1 2 15:06:01 22.287s
23 Alexander Albon 1 6 15:11:43 22.091s
31 Esteban Ocon 1 6 15:11:47 21.829s
20 Kevin Magnussen 1 6 15:11:43 21.871s
3 Daniel Ricciardo 1 7 15:13:08 21.084s
14 Fernando Alonso 1 7 15:13:05 22.542s
24 Guanyu Zhou 1 7 15:13:15 21.993s
2 Logan Sargeant 1 8 15:14:38 21.757s
18 Lance Stroll 1 14 15:23:01 23.237s
77 Valtteri Bottas 1 16 15:25:58 22.146s
44 Lewis Hamilton 1 16 15:25:36 21.306s
4 Lando Norris 1 17 15:26:55 21.861s
81 Oscar Piastri 1 18 15:28:15 21.641s
55 Carlos Sainz 1 21 15:32:46 21.655s
1 Max Verstappen 1 21 15:32:38 22.101s
16 Charles Leclerc 1 23 15:35:30 21.894s
11 Sergio Pérez 1 28 15:43:04 21.395s
10 Pierre Gasly 1 28 15:43:16 21.405s
3 Daniel Ricciardo 2 28 15:43:23 21.378s
22 Yuki Tsunoda 1 29 15:44:27 21.467s
23 Alexander Albon 2 29 15:44:46 23.410s
27 Nico Hülkenberg 2 29 15:44:45 22.472s
31 Esteban Ocon 2 30 15:46:17 21.444s
63 George Russell 1 33 15:50:09 21.369s
2 Logan Sargeant 2 33 15:50:34 21.398s
20 Kevin Magnussen 2 34 15:51:57 22.531s
24 Guanyu Zhou 2 36 15:55:03 22.183s
14 Fernando Alonso 2 37 15:55:57 21.800s
44 Lewis Hamilton 2 40 15:59:28 21.910s
16 Charles Leclerc 2 40 15:59:29 21.723s
18 Lance Stroll 2 45 16:07:17 22.276s
77 Valtteri Bottas 2 45 16:07:35 21.981s
4 Lando Norris 2 45 16:06:18 21.249s
55 Carlos Sainz 2 47 16:09:23 21.439s
81 Oscar Piastri 2 47 16:09:05 21.823s
11 Sergio Pérez 2 47 16:09:46 21.056s
1 Max Verstappen 2 49 16:12:02 21.344s
63 George Russell 2 53 16:18:05 21.328s
2 Logan Sargeant 3 63 16:33:22 21.908s
31 Esteban Ocon 3 64 16:34:46 21.330s
paragens
SG 10 20 30 40 50 60 L70
81
2
M17
H29·+1
M24·+1
4
2
M16
H28·+1
M26·+1
44
2
M15
H24
H31
16
2
M22
H17
M31
1
2
M20
H28
M22
55
2
M20
H26
M24
11
2
H27
M19
M24
63
2
H32
M20
H18
22
1
M28
H42
18
2
S13·+3
M31·+1
H26·+1
14
2
S6·+2
M30·+1
H34·+1
3
2
M6
H21
H42
27
2
M1
H27
H41
23
2
S5
H23
H41
20
2
S5
H28
H36
77
2
M15·+1
H29
H25
2
3
M7
H25
H30
S7
31
3
M5
H24
H34
S6
24
2
M6·+1
H29
H34
10
1
H27
M6
S Soft M Medium H Hard I Intermediate W Wet SC·VSC parada nos boxes punição cumprida nos boxes
Corrida · largura da barra = voltas com esse jogo, ·+N = montado usado com N voltas prévias · fonte OpenF1 (2023+)
Compostos indicados para este Grande Prémio
C3 Duro C4 Médio C5 Macio
A Pirelli indica três dos seus compostos secos para cada prova; quanto maior o número C, mais macio é o pneu. Documento da FIA ↗
Mais posições ganhas em pista
11
+18
P16→P7
27
+18
P11→P13
2
+15
P14→P17
63
+14
P17→P8
3
+14
P9→P12
77
+14
P12→P16
10
+14
P20→P—
18
+13
P8→P10
Mais posições perdidas
Nico Hülkenberg −17 Alexander Albon −17 Valtteri Bottas −17
Corrida · Soma das posições ganhas em pista volta a volta — excluem-se a volta de largada e as voltas de boxes do próprio piloto. Dados de voltas de corrida desde 1996.
PilotoTipoVoltaCumpridaAplicadaMotivo
1 Max Verstappen No further action Turn 1 incident between Cars 1 and 44 at 16:30. (No further action.) Doc 42 ↗
Turn 1 incident between Cars 1 and 44 at 16:30. (No further action.) Doc 42 ↗
1 Max Verstappen No further action Alleged leaving the track and gaining an advantage in Turn 1. (No further action.) Doc 36 ↗
Alleged leaving the track and gaining an advantage in Turn 1. (No further action.) Doc 36 ↗
Volta = volta em que a punição foi aplicada · Cumprida = volta em que foi cumprida nos boxes (em branco: somada ao tempo de corrida)
Time, drive-through and stop-go penalties come from race control messages (OpenF1, 2023+). Grid penalties never appear there — the stewards publish them as documents after the session — so they are worked back from the starting grid against the a qualificação classification, which gives places actually lost rather than the figure written in the decision.
PilotoTipoVoltaCumpridaAplicadaMotivo
10 Pierre Gasly Pit lane start The following Power Unit elements have been usados: 3rd Energy Store (ES) 4th Control Electronics (CE) All Power Unit elements were replaced without the approval of the FIA Technical Delegate during Parc Ferme. (Required to start the Corrida from the saída dos boxes.) Doc 33 ↗
The following Power Unit elements have been usados: 3rd Energy Store (ES) 4th Control Electronics (CE) All Power Unit elements were replaced without the approval of the FIA Technical Delegate during Parc Ferme. (Required to start the Corrida from the saída dos boxes.) Doc 33 ↗
2 Logan Sargeant Voltas deletadas TRACK LIMITS (PIT)
TRACK LIMITS (PIT)
63 George Russell Voltas deletadas TRACK LIMITS
TRACK LIMITS
44 Lewis Hamilton Voltas deletadas TRACK LIMITS
TRACK LIMITS
Volta = volta em que a punição foi aplicada · Cumprida = volta em que foi cumprida nos boxes (em branco: somada ao tempo de corrida)
Time, drive-through and stop-go penalties come from race control messages (OpenF1, 2023+). Grid penalties never appear there — the stewards publish them as documents after the session — so they are worked back from the starting grid against the a qualificação classification, which gives places actually lost rather than the figure written in the decision.
DocTítuloAssuntoPublished(CET)
1 Event Notes - Pirelli Preview ↗ 2024-07-17 13:07
2024-07-17 13:07 CET
2 Post-Corrida Checks on Car 44, 2024 British GP ↗ 44 Lewis Hamilton 2024-07-17 13:20
44 Lewis Hamilton 2024-07-17 13:20 CET
3 Event Notes - Circuito Map, Pit Lane Drawing and Red Zones ↗ 2024-07-18 15:40
2024-07-18 15:40 CET
5 Corrida Director's Event Notes ↗ 2024-07-18 15:48
2024-07-18 15:48 CET
6 Car Display Procedure ↗ 2024-07-18 18:45
2024-07-18 18:45 CET
7 PU elements usados per driver up to now ↗ 2024-07-19 09:35
2024-07-19 09:35 CET
8 RNCs usados per driver up to now ↗ 2024-07-19 09:35
2024-07-19 09:35 CET
9 Self Scrutineering ↗ 2024-07-19 09:36
2024-07-19 09:36 CET
10 Car Presentation Submissions ↗ 2024-07-19 11:06
2024-07-19 11:06 CET
11 Entry List ↗ 2024-07-19 11:32
2024-07-19 11:32 CET
12 Corrida Director's Event Notes V2 ↗ 2024-07-19 11:48
2024-07-19 11:48 CET
13 New RNCs for this Competition ↗ 2024-07-19 14:00
2024-07-19 14:00 CET
14 P1 Classification ↗ 2024-07-19 14:46
2024-07-19 14:46 CET
15 P2 Classification ↗ 2024-07-19 18:18
2024-07-19 18:18 CET
16 Corrida Director's Note - SC2-SC1 Time ↗ 2024-07-19 18:30
2024-07-19 18:30 CET
17 P1 and P2 Scrutineering ↗ 2024-07-19 19:11
2024-07-19 19:11 CET
18 RNCs usados outside allocation ↗ 2024-07-19 19:40
2024-07-19 19:40 CET
19 Curfew ↗ 2024-07-20 10:05
2024-07-20 10:05 CET
20 Post-Classificação Procedure ↗ 2024-07-20 10:20
2024-07-20 10:20 CET
21 P3 Classification ↗ 2024-07-20 13:50
2024-07-20 13:50 CET
22 Provisional Classificação Classification ↗ 2024-07-20 17:45
2024-07-20 17:45 CET
23 Infringement - Classificação Deleted Volta Times ↗ 2024-07-20 17:50
2024-07-20 17:50 CET
24 Decision - Classificação SC2-SC1 Times ↗ 2024-07-20 17:56
2024-07-20 17:56 CET
25 P3 and Classificação Scrutineering ↗ 2024-07-20 20:02
2024-07-20 20:02 CET
26 Final Classificação Classification ↗ 2024-07-20 20:10
2024-07-20 20:10 CET
27 Provisional Starting Grid ↗ 2024-07-20 20:16
2024-07-20 20:16 CET
28 Corrida Director's Event Notes V3 ↗ 2024-07-21 08:06
2024-07-21 08:06 CET
29 Self Scrutineering ↗ 2024-07-21 11:31
2024-07-21 11:31 CET
30 Parc Fermé Issues ↗ 2024-07-21 11:52
2024-07-21 11:52 CET
31 Pre-Corrida Procedure ↗ 2024-07-21 12:06
2024-07-21 12:06 CET
32 Post-Corrida Procedure ↗ 2024-07-21 12:08
2024-07-21 12:08 CET
33 Infringement - Car 10 - Changes made during Parc Ferme ↗ 10 Pierre Gasly 2024-07-21 12:37
10 Pierre Gasly 2024-07-21 12:37 CET
34 Parts and parameters been replaced and or changed during Parc Fermé ↗ 2024-07-21 12:56
2024-07-21 12:56 CET
35 Final Starting Grid ↗ 2024-07-21 13:01
2024-07-21 13:01 CET
36 Decision - Car 1 - Alleged leaving the track and gaining an advantage ↗ 1 Max Verstappen 2024-07-21 15:28
1 Max Verstappen 2024-07-21 15:28 CET
37 Summons - Car 1 - Incident with Car 44 ↗ 1 Max Verstappen 2024-07-21 16:53
1 Max Verstappen 2024-07-21 16:53 CET
38 Summons - Car 44 - Incident with Car 1 ↗ 44 Lewis Hamilton 2024-07-21 16:52
44 Lewis Hamilton 2024-07-21 16:52 CET
39 Provisional Corrida Classification ↗ 2024-07-21 17:05
2024-07-21 17:05 CET
40 Infringement - Corrida Deleted Volta Times ↗ 2024-07-21 17:10
2024-07-21 17:10 CET
41 Corrida Scrutineering ↗ 2024-07-21 18:44
2024-07-21 18:44 CET
42 Decision - Car 1 - Incident with Car 44 ↗ 1 Max Verstappen 2024-07-21 19:10
1 Max Verstappen 2024-07-21 19:10 CET
43 Final Corrida Classification ↗ 2024-07-21 19:15
2024-07-21 19:15 CET
44 Campeonato Pontos ↗ 2024-07-21 19:20
2024-07-21 19:20 CET
FIA official decisions and documents (fia.com) · PDF original PDF links
Record Basis · Calculation basis
Corrida order is the final classification(post-race penalties applied) · a qualificação session data 2003+ · lap times 1996+ · pit stops 2012+ (pit-lane transit, not stationary time) · Abandono = Finished(Finished·+N Voltas) non-Finished statuses
Fontes de dados: Jolpica-F1 (Ergast compatible API) · weather·Direção de prova OpenF1 (2023+) · Last fetched: 2026-09-05 14:15